Johnsonville, Illinois
Current Conditions -  °F | °C
As of 3:55 PM on Saturday 20 Dec 2014 (Local Time) from KFOA Reporting Station
Clear Clear  
Wind Chill: 31°   Ceiling: Unl
Heat Index: 36°   Visibility: 10mi
Dew Point: 28°   Wind: 6mph
Humidity: 73%   Direction: 120°ESE
Pressure: 30.28"   Gusts: NA
Location:  38.52°N, 88.54°W
Report Text: KFOA 202155Z AUTO 12005KT 10SM CLR 02/M02 A3028 RMK AO2 T00221021
Loading
Personal Weather Stations






























Interactive Weather Map New forecast layout! Learn more

10-Day Weather Forecast

Advertisements
Track Severe Weather on mobile